createdAt,value
2018-07-31T00:00:18.026Z,55.20
2018-07-31T00:02:46.605Z,55.20
2018-07-31T00:05:15.191Z,55.10
2018-07-31T00:07:43.764Z,55.10
2018-07-31T00:10:12.345Z,55.20
2018-07-31T00:12:40.932Z,55.20
2018-07-31T00:15:11.289Z,55.20
2018-07-31T00:17:39.898Z,55.30
2018-07-31T00:20:08.472Z,55.70
2018-07-31T00:22:37.049Z,55.80
2018-07-31T00:25:05.637Z,55.70
2018-07-31T00:27:34.168Z,55.60
2018-07-31T00:32:30.989Z,55.60
2018-07-31T00:34:59.539Z,55.60
2018-07-31T00:37:28.135Z,55.60
2018-07-31T00:39:57.085Z,55.60
2018-07-31T00:42:25.711Z,55.60
2018-07-31T00:44:54.225Z,55.60
2018-07-31T00:47:22.792Z,55.80
2018-07-31T00:49:51.347Z,55.70
2018-07-31T00:52:19.903Z,55.60
2018-07-31T00:54:48.457Z,55.60
2018-07-31T00:57:17.137Z,55.50
2018-07-31T00:59:45.673Z,55.50
2018-07-31T01:02:14.273Z,55.50
2018-07-31T01:04:42.868Z,55.40
2018-07-31T01:07:11.464Z,55.50
2018-07-31T01:12:08.261Z,55.90
2018-07-31T01:14:36.822Z,55.40
2018-07-31T01:17:05.402Z,55.40
2018-07-31T01:19:34.034Z,55.40
2018-07-31T01:22:02.617Z,55.40
2018-07-31T01:24:31.167Z,55.40
2018-07-31T01:26:59.723Z,55.40
2018-07-31T01:29:28.286Z,55.10
2018-07-31T01:31:56.863Z,55.40
2018-07-31T01:34:25.390Z,55.50
2018-07-31T01:36:53.980Z,55.50
2018-07-31T01:39:22.584Z,55.50
2018-07-31T01:41:51.139Z,55.40
2018-07-31T01:44:19.731Z,55.40
2018-07-31T01:46:48.261Z,55.40
2018-07-31T01:51:45.058Z,54.90
2018-07-31T01:54:13.609Z,55.40
2018-07-31T02:01:38.582Z,55.40
2018-07-31T02:04:07.207Z,55.40
2018-07-31T02:06:35.762Z,55.40
2018-07-31T02:09:06.033Z,55.30
2018-07-31T02:11:34.573Z,55.40
2018-07-31T02:14:03.242Z,55.50
2018-07-31T02:18:59.998Z,55.40
2018-07-31T02:21:28.529Z,55.40
2018-07-31T02:23:57.060Z,55.40
2018-07-31T02:26:25.640Z,55.40
2018-07-31T02:28:54.139Z,55.40
2018-07-31T02:31:22.632Z,55.40
2018-07-31T02:33:51.183Z,55.40
2018-07-31T02:36:19.720Z,55.40
2018-07-31T02:38:48.312Z,55.40
2018-07-31T02:43:45.069Z,55.30
2018-07-31T02:48:41.801Z,55.90
2018-07-31T02:51:10.386Z,55.30
2018-07-31T02:53:38.855Z,55.30
2018-07-31T02:56:07.400Z,55.30
2018-07-31T02:58:35.907Z,55.30
2018-07-31T03:01:04.437Z,55.20
2018-07-31T03:03:32.923Z,55.20
2018-07-31T03:06:01.453Z,55.20
2018-07-31T03:08:29.968Z,55.20
2018-07-31T03:10:58.487Z,55.10
2018-07-31T03:13:26.992Z,55.10
2018-07-31T03:15:55.549Z,55.10
2018-07-31T03:18:24.078Z,55.10
2018-07-31T03:20:52.603Z,55.00
2018-07-31T03:23:21.119Z,55.00
2018-07-31T03:25:49.622Z,55.00
2018-07-31T03:28:18.152Z,55.00
2018-07-31T03:30:46.651Z,55.60
2018-07-31T03:33:15.403Z,55.00
2018-07-31T03:35:43.878Z,55.00
2018-07-31T03:38:12.426Z,55.00
2018-07-31T03:40:40.953Z,54.90
2018-07-31T03:43:09.491Z,55.00
2018-07-31T03:45:37.997Z,54.90
2018-07-31T03:48:06.528Z,54.90
2018-07-31T03:53:03.215Z,55.00
2018-07-31T03:55:31.776Z,55.00
2018-07-31T03:58:00.299Z,54.90
2018-07-31T04:00:28.767Z,54.90
2018-07-31T04:02:57.392Z,54.80
2018-07-31T04:05:26.046Z,54.80
2018-07-31T04:07:54.587Z,54.80
2018-07-31T04:10:23.322Z,54.80
2018-07-31T04:12:51.936Z,54.80
2018-07-31T04:17:53.860Z,54.80
2018-07-31T04:20:22.942Z,54.80
2018-07-31T04:22:51.907Z,54.80
2018-07-31T04:25:20.532Z,54.80
2018-07-31T04:27:49.143Z,54.80
2018-07-31T04:32:46.224Z,54.90
2018-07-31T04:37:43.103Z,54.90
2018-07-31T04:40:11.719Z,54.90
2018-07-31T04:42:40.345Z,54.90
2018-07-31T04:45:10.038Z,54.80
2018-07-31T04:47:39.529Z,54.70
2018-07-31T04:50:09.729Z,54.70
2018-07-31T04:52:39.487Z,54.60
2018-07-31T04:55:08.355Z,54.60
2018-07-31T04:57:36.830Z,54.50
2018-07-31T05:00:07.968Z,54.50
2018-07-31T05:02:37.329Z,54.50
2018-07-31T05:05:06.162Z,54.40
2018-07-31T05:07:37.658Z,54.30
2018-07-31T05:10:08.742Z,54.20
2018-07-31T05:12:38.136Z,54.20
2018-07-31T05:15:06.915Z,54.20
2018-07-31T05:17:36.311Z,54.10
2018-07-31T05:20:06.068Z,54.10
2018-07-31T05:22:34.568Z,54.10
2018-07-31T05:25:03.125Z,54.00
2018-07-31T05:27:32.183Z,54.00
2018-07-31T05:30:01.070Z,54.00
2018-07-31T05:32:30.019Z,54.00
2018-07-31T05:34:58.524Z,54.00
2018-07-31T05:37:28.161Z,53.90
2018-07-31T05:39:56.887Z,53.50
2018-07-31T05:42:26.252Z,54.00
2018-07-31T05:44:54.734Z,54.10
2018-07-31T05:47:23.427Z,54.00
2018-07-31T05:49:51.971Z,54.10
2018-07-31T05:52:20.626Z,54.00
2018-07-31T05:54:49.425Z,53.90
2018-07-31T05:57:18.222Z,54.00
2018-07-31T05:59:46.786Z,53.90
2018-07-31T06:02:15.929Z,53.80
2018-07-31T06:04:44.794Z,53.70
2018-07-31T06:07:15.554Z,53.70
2018-07-31T06:09:44.227Z,53.60
2018-07-31T06:12:12.787Z,53.50
2018-07-31T06:14:42.502Z,53.30
2018-07-31T06:17:11.031Z,53.30
2018-07-31T06:19:39.779Z,53.30
2018-07-31T06:22:08.471Z,53.20
2018-07-31T06:24:37.323Z,53.10
2018-07-31T06:27:06.212Z,53.10
2018-07-31T06:29:34.763Z,53.10
2018-07-31T06:32:03.325Z,53.00
2018-07-31T06:37:00.083Z,52.90
2018-07-31T06:41:56.856Z,52.80
2018-07-31T06:44:25.423Z,52.70
2018-07-31T06:46:53.991Z,52.70
2018-07-31T06:49:22.523Z,52.60
2018-07-31T06:51:51.071Z,52.50
2018-07-31T06:54:19.572Z,52.50
2018-07-31T06:56:48.140Z,52.50
2018-07-31T06:59:16.663Z,52.80
2018-07-31T07:04:13.376Z,52.50
2018-07-31T07:06:42.017Z,52.60
2018-07-31T07:09:11.616Z,52.50
2018-07-31T07:11:40.488Z,52.60
2018-07-31T07:14:09.029Z,52.60
2018-07-31T07:16:37.836Z,52.70
2018-07-31T07:19:06.405Z,52.60
2018-07-31T07:21:34.991Z,52.60
2018-07-31T07:24:03.518Z,52.60
2018-07-31T07:26:32.098Z,52.50
2018-07-31T07:29:00.622Z,52.50
2018-07-31T07:31:29.131Z,52.50
2018-07-31T07:33:57.802Z,52.70
2018-07-31T07:36:26.305Z,52.50
2018-07-31T07:38:54.917Z,52.50
2018-07-31T07:41:23.481Z,52.40
2018-07-31T07:43:51.993Z,52.90
2018-07-31T07:46:20.589Z,52.30
2018-07-31T07:48:49.135Z,52.20
2018-07-31T07:53:45.952Z,51.80
2018-07-31T07:56:14.447Z,51.80
2018-07-31T07:58:43.031Z,51.70
2018-07-31T08:01:11.494Z,51.70
2018-07-31T08:03:40.092Z,51.70
2018-07-31T08:06:08.604Z,51.40
2018-07-31T08:08:37.172Z,51.60
2018-07-31T08:11:05.676Z,51.50
2018-07-31T08:13:34.188Z,51.40
2018-07-31T08:16:02.776Z,51.30
2018-07-31T08:18:31.462Z,51.30
2018-07-31T08:21:00.121Z,51.30
2018-07-31T08:23:28.659Z,51.30
2018-07-31T08:25:57.245Z,51.20
2018-07-31T08:30:54.007Z,51.10
2018-07-31T08:38:18.978Z,50.90
2018-07-31T08:40:47.493Z,50.90
2018-07-31T08:43:16.094Z,50.80
2018-07-31T08:45:44.625Z,50.80
2018-07-31T08:48:13.158Z,50.50
2018-07-31T08:50:41.674Z,50.40
2018-07-31T08:53:10.177Z,50.40
2018-07-31T08:55:38.707Z,50.40
2018-07-31T08:58:07.202Z,50.50
2018-07-31T09:00:35.683Z,50.50
2018-07-31T09:03:04.224Z,50.50
2018-07-31T09:08:00.858Z,50.40
2018-07-31T09:10:29.367Z,50.30
2018-07-31T09:12:57.935Z,50.30
2018-07-31T09:15:26.438Z,50.20
2018-07-31T09:17:55.021Z,50.20
2018-07-31T09:20:23.601Z,50.10
2018-07-31T09:22:52.143Z,50.00
2018-07-31T09:25:20.683Z,49.90
2018-07-31T09:30:17.382Z,49.20
2018-07-31T09:32:51.071Z,49.60
2018-07-31T09:35:19.589Z,49.60
2018-07-31T09:37:48.192Z,49.50
2018-07-31T09:40:16.696Z,49.50
2018-07-31T09:42:45.286Z,49.50
2018-07-31T09:45:13.718Z,49.50
2018-07-31T09:47:42.227Z,49.50
2018-07-31T09:50:10.704Z,49.40
2018-07-31T09:52:39.244Z,49.20
2018-07-31T09:55:07.727Z,49.10
2018-07-31T09:57:36.343Z,49.00
2018-07-31T10:00:05.951Z,48.80
2018-07-31T10:02:34.412Z,48.70
2018-07-31T10:05:02.961Z,48.50
2018-07-31T10:07:31.444Z,48.40
2018-07-31T10:09:59.938Z,48.40
2018-07-31T10:12:28.397Z,48.40
2018-07-31T10:14:56.908Z,48.50
2018-07-31T10:17:25.426Z,48.50
2018-07-31T10:19:53.950Z,48.40
2018-07-31T10:22:22.484Z,48.30
2018-07-31T10:24:50.962Z,48.00
2018-07-31T10:27:19.468Z,48.00
2018-07-31T10:29:47.993Z,48.00
2018-07-31T10:32:16.475Z,47.90
2018-07-31T10:34:44.948Z,47.80
2018-07-31T10:39:41.703Z,47.50
2018-07-31T10:44:38.414Z,48.10
2018-07-31T10:47:06.898Z,47.40
2018-07-31T10:49:35.416Z,47.50
2018-07-31T10:52:04.122Z,47.50
2018-07-31T10:54:32.621Z,47.50
2018-07-31T10:59:29.344Z,47.60
2018-07-31T11:01:57.912Z,47.60
2018-07-31T11:04:26.376Z,47.50
2018-07-31T11:06:54.954Z,47.50
2018-07-31T11:11:51.658Z,47.60
2018-07-31T11:14:20.136Z,47.70
2018-07-31T11:16:48.615Z,47.80
2018-07-31T11:19:17.128Z,47.80
2018-07-31T11:21:45.652Z,47.90
2018-07-31T11:24:14.177Z,47.80
2018-07-31T11:26:42.809Z,47.80
2018-07-31T11:29:11.310Z,47.50
2018-07-31T11:31:39.862Z,47.40
2018-07-31T11:34:08.611Z,47.20
2018-07-31T11:36:37.206Z,47.00
2018-07-31T11:39:08.604Z,46.80
2018-07-31T11:41:37.594Z,46.60
2018-07-31T11:44:06.198Z,46.30
2018-07-31T11:46:34.837Z,46.20
2018-07-31T11:49:03.394Z,46.10
2018-07-31T11:56:28.551Z,46.00
2018-07-31T12:01:25.465Z,46.10
2018-07-31T12:03:54.161Z,46.00
2018-07-31T12:06:22.748Z,46.00
2018-07-31T12:08:51.246Z,45.90
2018-07-31T12:11:19.763Z,45.80
2018-07-31T12:13:48.395Z,45.80
2018-07-31T12:16:16.925Z,46.40
2018-07-31T12:18:45.440Z,45.70
2018-07-31T12:21:14.038Z,45.60
2018-07-31T12:26:10.785Z,45.60
2018-07-31T12:28:39.303Z,45.60
2018-07-31T12:31:07.866Z,45.40
2018-07-31T12:33:36.427Z,45.30
2018-07-31T12:36:05.055Z,45.20
2018-07-31T12:38:33.673Z,45.10
2018-07-31T12:43:30.506Z,44.90
2018-07-31T12:45:58.949Z,44.90
2018-07-31T12:48:27.442Z,44.90
2018-07-31T12:50:55.973Z,44.90
2018-07-31T12:53:24.677Z,44.90
2018-07-31T12:55:53.478Z,44.90
2018-07-31T12:58:22.058Z,45.00
2018-07-31T13:00:50.536Z,44.10
2018-07-31T13:03:19.076Z,44.10
2018-07-31T13:05:48.019Z,43.90
2018-07-31T13:08:16.646Z,43.80
2018-07-31T13:10:45.257Z,43.80
2018-07-31T13:13:13.950Z,43.50
2018-07-31T13:15:42.734Z,43.40
2018-07-31T13:18:11.368Z,43.30
2018-07-31T13:20:39.912Z,43.20
2018-07-31T13:23:08.448Z,43.20
2018-07-31T13:25:36.918Z,43.20
2018-07-31T13:28:05.474Z,43.30
2018-07-31T13:30:33.953Z,43.30
2018-07-31T13:33:02.591Z,43.30
2018-07-31T13:35:31.897Z,43.30
2018-07-31T13:38:00.885Z,43.30
2018-07-31T13:40:29.467Z,43.30
2018-07-31T13:42:58.071Z,43.20
2018-07-31T13:45:26.739Z,43.10
2018-07-31T13:50:23.622Z,42.90
2018-07-31T13:52:52.202Z,42.90
2018-07-31T13:55:20.717Z,42.70
2018-07-31T13:57:49.299Z,42.80
2018-07-31T14:00:17.817Z,42.90
2018-07-31T14:02:47.153Z,42.80
2018-07-31T14:07:43.849Z,42.60
2018-07-31T14:10:12.402Z,42.40
2018-07-31T14:15:10.032Z,42.10
2018-07-31T14:17:38.581Z,41.80
2018-07-31T14:22:35.406Z,41.60
2018-07-31T14:25:04.154Z,41.40
2018-07-31T14:27:32.685Z,41.20
2018-07-31T14:30:01.185Z,41.00
2018-07-31T14:32:29.717Z,41.00
2018-07-31T14:34:58.314Z,40.90
2018-07-31T14:37:26.807Z,41.30
2018-07-31T14:39:55.357Z,40.60
2018-07-31T14:42:23.939Z,40.60
2018-07-31T14:44:52.498Z,40.50
2018-07-31T14:47:21.408Z,40.40
2018-07-31T14:49:51.017Z,40.30
2018-07-31T14:52:19.646Z,40.80
2018-07-31T14:54:48.304Z,40.20
2018-07-31T14:57:16.956Z,40.40
2018-07-31T14:59:45.468Z,40.40
2018-07-31T15:02:14.138Z,40.40
2018-07-31T15:04:42.682Z,40.40
2018-07-31T15:07:11.277Z,40.50
2018-07-31T15:09:39.913Z,40.50
2018-07-31T15:12:08.386Z,40.40
2018-07-31T15:14:36.971Z,40.30
2018-07-31T15:17:05.894Z,40.20
2018-07-31T15:19:34.506Z,40.20
2018-07-31T15:22:03.275Z,40.00
2018-07-31T15:24:31.863Z,39.80
2018-07-31T15:27:00.362Z,39.80
2018-07-31T15:29:28.914Z,39.70
2018-07-31T15:31:57.548Z,39.70
2018-07-31T15:36:54.514Z,39.20
2018-07-31T15:46:48.781Z,39.00
2018-07-31T15:49:17.589Z,38.90
2018-07-31T15:51:46.124Z,38.90
2018-07-31T15:56:43.039Z,38.80
2018-07-31T15:59:11.754Z,38.70
2018-07-31T16:01:40.331Z,38.70
2018-07-31T16:04:08.911Z,38.70
2018-07-31T16:06:37.609Z,38.70
2018-07-31T16:09:08.547Z,38.70
2018-07-31T16:11:37.111Z,38.70
2018-07-31T16:14:05.981Z,39.00
2018-07-31T16:16:34.586Z,39.20
2018-07-31T16:21:31.398Z,39.40
2018-07-31T16:23:59.930Z,39.50
2018-07-31T16:26:28.611Z,39.50
2018-07-31T16:28:57.229Z,39.70
2018-07-31T16:31:25.778Z,39.80
2018-07-31T16:33:54.595Z,39.90
2018-07-31T16:36:23.262Z,40.10
2018-07-31T16:38:51.818Z,40.10
2018-07-31T16:41:20.441Z,40.20
2018-07-31T16:43:49.014Z,40.20
2018-07-31T16:46:17.970Z,40.50
2018-07-31T16:48:46.818Z,41.00
2018-07-31T16:51:15.509Z,41.60
2018-07-31T16:53:44.130Z,42.10
2018-07-31T16:56:12.998Z,42.40
2018-07-31T16:58:42.226Z,42.70
2018-07-31T17:03:39.146Z,43.40
2018-07-31T17:06:07.986Z,43.70
2018-07-31T17:08:36.516Z,44.00
2018-07-31T17:11:06.436Z,44.30
2018-07-31T17:13:35.091Z,44.60
2018-07-31T17:16:04.277Z,44.80
2018-07-31T17:21:01.241Z,45.20
2018-07-31T17:23:30.004Z,45.30
2018-07-31T17:25:58.539Z,45.50
2018-07-31T17:30:55.689Z,45.80
2018-07-31T17:33:24.236Z,45.80
2018-07-31T17:35:52.902Z,46.10
2018-07-31T17:38:21.563Z,46.20
2018-07-31T17:40:50.211Z,46.30
2018-07-31T17:43:18.818Z,46.40
2018-07-31T17:45:47.603Z,46.50
2018-07-31T17:48:17.187Z,46.60
2018-07-31T17:50:45.732Z,46.80
2018-07-31T17:53:14.267Z,46.80
2018-07-31T17:55:43.023Z,46.90
2018-07-31T18:00:40.746Z,47.10
2018-07-31T18:03:09.313Z,47.20
2018-07-31T18:05:38.062Z,47.40
2018-07-31T18:08:06.763Z,47.50
2018-07-31T18:10:35.423Z,47.70
2018-07-31T18:13:03.884Z,47.80
2018-07-31T18:15:32.407Z,47.90
2018-07-31T18:18:01.045Z,48.00
2018-07-31T18:20:29.889Z,48.10
2018-07-31T18:22:58.656Z,48.20
2018-07-31T18:25:27.171Z,48.30
2018-07-31T18:27:55.665Z,48.40
2018-07-31T18:30:24.331Z,48.50
2018-07-31T18:32:52.930Z,48.50
2018-07-31T18:35:21.451Z,48.60
2018-07-31T18:37:50.681Z,48.60
2018-07-31T18:40:19.375Z,48.70
2018-07-31T18:42:48.197Z,48.90
2018-07-31T18:45:16.693Z,48.90
2018-07-31T18:47:45.208Z,48.90
2018-07-31T18:50:14.049Z,48.80
2018-07-31T18:52:42.531Z,49.10
2018-07-31T18:55:11.051Z,48.80
2018-07-31T18:57:39.715Z,48.80
2018-07-31T19:00:09.269Z,48.70
2018-07-31T19:10:03.569Z,49.70
2018-07-31T19:12:32.096Z,49.30
2018-07-31T19:15:00.874Z,49.30
2018-07-31T19:17:29.498Z,49.40
2018-07-31T19:19:58.589Z,49.50
2018-07-31T19:24:55.845Z,49.60
2018-07-31T19:27:24.552Z,49.70
2018-07-31T19:29:53.240Z,49.70
2018-07-31T19:32:21.785Z,49.70
2018-07-31T19:34:50.585Z,49.80
2018-07-31T19:37:19.207Z,49.80
2018-07-31T19:39:48.650Z,49.80
2018-07-31T19:42:17.252Z,49.90
2018-07-31T19:44:46.185Z,49.90
2018-07-31T19:47:15.717Z,49.90
2018-07-31T19:49:46.614Z,49.90
2018-07-31T19:52:17.240Z,49.90
2018-07-31T19:54:45.903Z,50.00
2018-07-31T19:57:14.583Z,50.00
2018-07-31T20:02:43.481Z,50.00
2018-07-31T20:05:15.601Z,50.00
2018-07-31T20:07:44.497Z,50.10
2018-07-31T20:10:13.842Z,50.00
2018-07-31T20:12:43.580Z,50.10
2018-07-31T20:15:13.898Z,50.20
2018-07-31T20:20:10.776Z,50.40
2018-07-31T20:22:41.483Z,50.50
2018-07-31T20:25:10.979Z,50.60
2018-07-31T20:27:40.434Z,51.10
2018-07-31T20:30:09.080Z,50.70
2018-07-31T20:32:37.850Z,50.70
2018-07-31T20:35:07.298Z,50.80
2018-07-31T20:37:36.821Z,50.90
2018-07-31T20:40:06.761Z,50.90
2018-07-31T20:42:35.791Z,51.00
2018-07-31T20:45:05.672Z,51.00
2018-07-31T20:47:34.890Z,51.10
2018-07-31T20:50:03.894Z,51.10
2018-07-31T20:52:32.890Z,51.20
2018-07-31T20:55:02.179Z,51.30
2018-07-31T20:57:30.705Z,51.30
2018-07-31T20:59:59.289Z,51.40
2018-07-31T21:02:27.917Z,51.50
2018-07-31T21:04:56.642Z,51.60
2018-07-31T21:07:26.372Z,51.70
2018-07-31T21:09:55.716Z,51.70
2018-07-31T21:12:24.350Z,52.30
2018-07-31T21:14:52.920Z,51.80
2018-07-31T21:17:21.550Z,51.70
2018-07-31T21:19:50.208Z,51.70
2018-07-31T21:22:19.024Z,52.80
2018-07-31T21:24:47.783Z,52.80
2018-07-31T21:27:16.547Z,52.80
2018-07-31T21:29:45.960Z,52.70
2018-07-31T21:32:14.569Z,52.70
2018-07-31T21:34:43.344Z,52.70
2018-07-31T21:37:12.015Z,52.70
2018-07-31T21:39:40.648Z,52.80
2018-07-31T21:42:09.821Z,52.90
2018-07-31T21:44:38.542Z,52.90
2018-07-31T21:47:07.491Z,53.00
2018-07-31T21:49:36.335Z,53.00
2018-07-31T21:52:05.066Z,53.00
2018-07-31T21:54:33.610Z,53.00
2018-07-31T21:57:02.200Z,53.00
2018-07-31T21:59:31.554Z,53.10
2018-07-31T22:02:00.216Z,53.20
2018-07-31T22:04:28.771Z,53.30
2018-07-31T22:06:57.254Z,53.40
2018-07-31T22:09:31.726Z,53.40
2018-07-31T22:12:00.587Z,53.50
2018-07-31T22:14:29.310Z,53.50
2018-07-31T22:16:57.951Z,53.50
2018-07-31T22:19:26.509Z,53.60
2018-07-31T22:21:55.058Z,53.80
2018-07-31T22:24:23.848Z,53.80
2018-07-31T22:26:52.971Z,53.90
2018-07-31T22:29:21.693Z,54.00
2018-07-31T22:34:18.521Z,54.20
2018-07-31T22:36:47.326Z,54.20
2018-07-31T22:41:44.239Z,54.40
2018-07-31T22:44:13.136Z,54.50
2018-07-31T22:46:41.714Z,55.20
2018-07-31T22:49:10.463Z,54.70
2018-07-31T22:51:44.697Z,54.80
2018-07-31T22:54:13.327Z,54.90
2018-07-31T22:56:41.971Z,55.00
2018-07-31T22:59:10.654Z,55.10
2018-07-31T23:01:39.350Z,55.20
2018-07-31T23:04:07.979Z,55.20
2018-07-31T23:06:37.012Z,55.10
2018-07-31T23:09:09.085Z,55.10
2018-07-31T23:11:38.441Z,55.10
2018-07-31T23:14:07.045Z,55.10
2018-07-31T23:16:36.472Z,55.20
2018-07-31T23:19:05.118Z,55.40
2018-07-31T23:21:33.748Z,55.50
2018-07-31T23:24:02.336Z,55.50
2018-07-31T23:26:30.857Z,55.60
2018-07-31T23:28:59.444Z,55.70
2018-07-31T23:31:28.076Z,55.70
2018-07-31T23:33:56.847Z,55.80
2018-07-31T23:38:53.663Z,55.90
2018-07-31T23:41:22.363Z,56.00
2018-07-31T23:43:50.914Z,56.10
2018-07-31T23:48:47.744Z,56.60
2018-07-31T23:51:16.260Z,56.70
2018-07-31T23:56:13.180Z,57.00
2018-07-31T23:58:41.699Z,57.10
